KAWM/AWM METAR and TAF weather

Enter ICAO airport designator
Station Type Date Time Source
KAWM METAR 2019/08/19 21:53 UTC NOAA

KAWM 192153Z AUTO 32004KT 10SM CLR 35/25 A2996 RMK AO2 SLP139 T03500250 $


Station Type Date Time Source
KAWM Decoded METAR 2019/08/19 21:53 UTC NOAA

WEST MEMPHIS MUNICIPAL AIRPORT, AR, United States (KAWM) 35-08N 090-14W
Aug 19, 2019 - 05:53 PM EDT / 2019.08.19 2153 UTC
Wind: from the NW (320 degrees) at 5 MPH (4 KT):0
Visibility: 10 mile(s):0
Sky conditions: clear
Temperature: 95.0 F (35.0 C)
Heat index: 109.8 F (43.2 C):1
Dew Point: 77.0 F (25.0 C)
Relative Humidity: 56%
Pressure (altimeter): 29.96 in. Hg (1014 hPa)
ob: KAWM 192153Z AUTO 32004KT 10SM CLR 35/25 A2996 RMK AO2 SLP139 T03500250
cycle: 22

Station Type Date Time Source
KAWM TAF UTC NOAA

Error!

Example: see airport list